Time;durP1;ratioP1;P1;durP2;ratioP2;P2;SDS_P1;SDS_P2;PMS_P1;PMS_P2;Temp;Humidity;BMP_temperature;BMP_pressure;BME280_temperature;BME280_humidity;BME280_pressure;Samples;Min_cycle;Max_cycle;Signal;HPM_P1;HPM_P2
2023/02/14 00:00:43;;;;;;;16.17;5.45;;;;;;;3.64;100.00;102634.64;4953833;57;1138866;-65
2023/02/14 00:05:51;;;;;;;10.03;5.53;;;;;;;3.62;100.00;102631.62;4934023;57;1139002;-65
2023/02/14 00:10:56;;;;;;;11.10;5.70;;;;;;;3.58;100.00;102629.48;4935031;58;1139294;-69
2023/02/14 00:16:02;;;;;;;12.80;5.83;;;;;;;3.54;100.00;102635.64;4954443;57;1138881;-68
2023/02/14 00:21:08;;;;;;;11.87;6.17;;;;;;;3.48;100.00;102635.30;4934963;58;1138863;-70
2023/02/14 00:26:15;;;;;;;9.93;5.50;;;;;;;3.46;100.00;102633.59;4948077;57;1138708;-70
2023/02/14 00:31:23;;;;;;;12.53;5.93;;;;;;;3.41;100.00;102638.02;5029970;56;1136766;-66
2023/02/14 00:36:29;;;;;;;12.40;5.87;;;;;;;3.37;100.00;102635.02;5009550;56;1138847;-69
2023/02/14 00:41:35;;;;;;;17.53;6.23;;;;;;;3.28;100.00;102638.63;5011332;56;1148413;-67
2023/02/14 00:46:41;;;;;;;13.03;5.33;;;;;;;3.20;100.00;102642.25;5030709;56;1139028;-68
2023/02/14 00:51:47;;;;;;;13.13;5.80;;;;;;;3.17;100.00;102642.70;4908939;57;1138763;-68
2023/02/14 00:56:53;;;;;;;14.05;5.60;;;;;;;3.10;100.00;102646.27;4947338;57;1138946;-69
2023/02/14 01:01:59;;;;;;;12.40;6.03;;;;;;;3.05;100.00;102644.17;4962441;57;1139062;-70
2023/02/14 01:07:07;;;;;;;10.47;4.70;;;;;;;3.03;100.00;102640.71;5032083;55;1139023;-69
2023/02/14 01:12:16;;;;;;;12.53;5.77;;;;;;;3.02;100.00;102642.91;4969318;56;1138938;-69
2023/02/14 01:17:22;;;;;;;20.33;5.57;;;;;;;2.96;100.00;102641.66;4997313;56;1138906;-67
2023/02/14 01:22:28;;;;;;;11.23;5.87;;;;;;;2.91;100.00;102638.22;4977591;56;1138768;-68
2023/02/14 01:27:34;;;;;;;15.32;6.45;;;;;;;2.85;100.00;102633.53;4881922;57;1138981;-67
2023/02/14 01:32:41;;;;;;;11.20;5.17;;;;;;;2.87;100.00;102627.84;4924850;57;1139014;-69
2023/02/14 01:37:47;;;;;;;10.73;5.23;;;;;;;2.85;100.00;102633.53;4922636;58;1139094;-67
2023/02/14 01:42:52;;;;;;;13.87;6.10;;;;;;;2.81;100.00;102645.31;4931432;58;1139095;-68
2023/02/14 01:47:58;;;;;;;8.33;5.90;;;;;;;2.80;100.00;102644.89;4944017;58;1138881;-68
2023/02/14 01:53:11;;;;;;;9.67;5.17;;;;;;;2.81;100.00;102644.01;4920670;57;1136759;-67
2023/02/14 01:58:21;;;;;;;11.28;6.17;;;;;;;2.78;100.00;102634.03;4934311;58;1136710;-67
2023/02/14 02:03:41;;;;;;;11.67;6.10;;;;;;;2.67;100.00;102635.47;4933921;56;1139970;-70
2023/02/14 02:08:52;;;;;;;12.68;6.47;;;;;;;2.67;100.00;102631.98;4952828;57;1138897;-70
2023/02/14 02:13:58;;;;;;;10.47;6.50;;;;;;;2.68;100.00;102630.66;4931971;57;1139090;-67
2023/02/14 02:19:29;;;;;;;13.70;5.10;;;;;;;2.67;100.00;102638.52;4933849;56;1138942;-66
2023/02/14 02:24:48;;;;;;;9.18;5.65;;;;;;;2.73;100.00;102637.16;4933302;57;1139108;-66
2023/02/14 02:30:31;;;;;;;12.00;5.77;;;;;;;2.66;100.00;102630.25;4952782;57;1136893;-67
2023/02/14 02:35:41;;;;;;;10.70;5.40;;;;;;;2.65;100.00;102624.16;4930421;57;1139109;-68
2023/02/14 02:41:10;;;;;;;7.72;5.28;;;;;;;2.59;100.00;102616.41;4927267;58;1138892;-66
2023/02/14 02:46:47;;;;;;;10.18;5.42;;;;;;;2.55;100.00;102616.45;4950024;58;1137027;-69
2023/02/14 02:57:30;;;;;;;11.23;6.10;;;;;;;2.56;100.00;102611.22;4943652;58;1138888;-67
2023/02/14 03:08:07;;;;;;;9.73;5.07;;;;;;;2.74;100.00;102634.53;4963298;58;1138850;-70
2023/02/14 03:13:45;;;;;;;15.63;5.97;;;;;;;2.78;100.00;102636.64;4944173;58;1136801;-70
2023/02/14 03:19:04;;;;;;;12.65;6.50;;;;;;;2.73;100.00;102631.49;4943218;58;1138765;-66
2023/02/14 03:24:26;;;;;;;9.83;5.07;;;;;;;2.60;100.00;102635.56;4943597;58;1138896;-70
2023/02/14 03:30:05;;;;;;;8.73;5.33;;;;;;;2.54;100.00;102645.62;4944414;58;1136973;-66
2023/02/14 03:35:24;;;;;;;12.00;6.00;;;;;;;2.54;100.00;102645.62;4980044;57;1136835;-67
2023/02/14 03:40:41;;;;;;;8.97;5.37;;;;;;;2.54;100.00;102646.94;4964231;58;1139090;-66
2023/02/14 03:46:03;;;;;;;9.63;5.35;;;;;;;2.45;100.00;102637.42;4964761;57;1146191;-69
2023/02/14 03:51:12;;;;;;;10.70;5.12;;;;;;;2.37;100.00;102641.00;4914310;57;1136697;-69
2023/02/14 03:56:25;;;;;;;11.85;5.62;;;;;;;2.39;100.00;102642.73;4964529;58;1138752;-68
2023/02/14 04:01:39;;;;;;;14.10;6.03;;;;;;;2.45;100.00;102647.00;4847458;58;1138823;-68
2023/02/14 04:06:45;;;;;;;10.77;5.60;;;;;;;2.47;100.00;102640.02;4964849;58;1138898;-67
2023/02/14 04:11:51;;;;;;;10.77;5.93;;;;;;;2.45;100.00;102642.64;4984038;58;1139013;-70
2023/02/14 04:22:21;;;;;;;21.02;9.80;;;;;;;2.51;100.00;102654.79;4964741;58;1138876;-68
2023/02/14 04:27:28;;;;;;;25.17;9.73;;;;;;;2.56;100.00;102654.31;4965000;58;1138804;-67
2023/02/14 04:32:34;;;;;;;12.47;6.77;;;;;;;2.60;100.00;102655.99;4984105;58;1138955;-68
2023/02/14 04:37:42;;;;;;;18.87;8.53;;;;;;;2.54;100.00;102643.45;4964161;57;1138832;-67
2023/02/14 04:42:48;;;;;;;17.50;8.40;;;;;;;2.51;100.00;102654.79;4964793;57;1138794;-67
2023/02/14 04:47:54;;;;;;;15.80;8.35;;;;;;;2.47;100.00;102644.81;4983922;57;1139002;-68
2023/02/14 04:52:59;;;;;;;19.97;8.23;;;;;;;2.52;100.00;102655.22;4957594;58;1138860;-68
2023/02/14 04:58:05;;;;;;;22.10;9.67;;;;;;;2.56;100.00;102651.70;4951444;58;1139312;-69
2023/02/14 05:03:13;;;;;;;26.30;10.80;;;;;;;2.48;100.00;102646.54;4974032;57;1138846;-68
2023/02/14 05:08:19;;;;;;;27.30;12.17;;;;;;;2.51;100.00;102649.57;4966276;56;1141039;-66
2023/02/14 05:13:25;;;;;;;33.87;14.33;;;;;;;2.54;100.00;102647.37;4962042;58;1140935;-66
2023/02/14 05:18:31;;;;;;;45.70;16.93;;;;;;;2.55;100.00;102652.58;4964413;58;1140992;-67
2023/02/14 05:23:38;;;;;;;45.50;18.98;;;;;;;2.60;100.00;102649.93;4996646;58;1140921;-69
2023/02/14 05:28:43;;;;;;;42.62;17.40;;;;;;;2.67;100.00;102652.45;4978229;56;1141107;-68
2023/02/14 05:33:49;;;;;;;39.73;14.95;;;;;;;2.68;100.00;102650.70;4950681;58;1140927;-67
2023/02/14 05:38:55;;;;;;;31.15;13.38;;;;;;;2.68;100.00;102647.64;4804882;59;1140981;-67
2023/02/14 05:44:01;;;;;;;43.55;15.60;;;;;;;2.71;100.00;102651.54;4923032;56;1141045;-67
2023/02/14 05:49:06;;;;;;;32.83;14.73;;;;;;;2.78;100.00;102651.88;4987206;57;1140932;-69
2023/02/14 05:54:12;;;;;;;33.47;15.17;;;;;;;2.85;100.00;102651.82;4942558;56;1141182;-68
2023/02/14 05:59:18;;;;;;;40.07;18.30;;;;;;;2.87;100.00;102649.62;4906542;56;1141075;-66
2023/02/14 06:04:24;;;;;;;33.20;16.37;;;;;;;2.85;100.00;102655.30;4921945;57;1141089;-65
2023/02/14 06:09:30;;;;;;;34.30;15.90;;;;;;;2.80;100.00;102664.93;4971559;57;1141166;-68
2023/02/14 06:14:36;;;;;;;33.50;14.03;;;;;;;2.79;100.00;102668.42;5007563;56;1141096;-66
2023/02/14 06:19:42;;;;;;;36.97;16.90;;;;;;;2.80;100.00;102675.38;4972881;56;1141379;-68
2023/02/14 06:24:47;;;;;;;30.87;14.80;;;;;;;2.80;100.00;102674.94;4935977;57;1140967;-68
2023/02/14 06:29:53;;;;;;;39.00;16.65;;;;;;;2.85;100.00;102681.88;4978416;56;1143028;-66
2023/02/14 06:34:59;;;;;;;23.53;12.40;;;;;;;2.88;100.00;102677.92;4979731;56;1140980;-66
2023/02/14 06:40:05;;;;;;;24.02;13.15;;;;;;;2.84;100.00;102688.84;4975940;57;1141158;-68
2023/02/14 06:45:11;;;;;;;14.77;9.87;;;;;;;2.85;100.00;102692.33;4986442;57;1140862;-69
2023/02/14 06:50:17;;;;;;;15.53;9.13;;;;;;;2.84;100.00;102694.07;4965071;56;1138989;-66
2023/02/14 06:55:23;;;;;;;16.10;7.87;;;;;;;2.83;100.00;102696.26;4987091;57;1138744;-68
2023/02/14 07:00:29;;;;;;;14.70;6.97;;;;;;;2.88;100.00;102692.30;4987352;57;1141114;-66
2023/02/14 07:05:34;;;;;;;12.47;8.13;;;;;;;2.90;100.00;102687.92;5006946;57;1141162;-67
2023/02/14 07:10:40;;;;;;;15.50;8.17;;;;;;;2.87;100.00;102697.97;4987650;57;1138939;-68
2023/02/14 07:15:48;;;;;;;16.45;9.00;;;;;;;2.89;100.00;102697.95;4948047;57;1138897;-68
2023/02/14 07:20:54;;;;;;;13.83;7.03;;;;;;;2.90;100.00;102705.78;5089891;57;1138910;-68
2023/02/14 07:25:59;;;;;;;12.87;7.33;;;;;;;2.96;100.00;102710.05;5069727;57;1138860;-68
2023/02/14 07:31:05;;;;;;;21.00;10.43;;;;;;;3.01;100.00;102709.58;5016108;56;1138794;-68
2023/02/14 07:36:12;;;;;;;32.00;15.57;;;;;;;3.08;100.00;102713.39;4999823;57;1141130;-67
2023/02/14 07:41:17;;;;;;;30.40;13.73;;;;;;;3.13;100.00;102710.29;4974355;57;1141129;-68
2023/02/14 07:46:23;;;;;;;27.37;11.90;;;;;;;3.21;100.00;102729.80;4957307;57;1141004;-65
2023/02/14 07:51:30;;;;;;;24.73;11.57;;;;;;;3.31;100.00;102724.90;4941438;56;1141169;-69
2023/02/14 07:56:36;;;;;;;22.70;11.00;;;;;;;3.37;100.00;102734.40;4896950;56;1141009;-66
2023/02/14 08:01:44;;;;;;;36.40;15.80;;;;;;;3.43;100.00;102727.80;4896757;56;1140881;-67
2023/02/14 08:06:50;;;;;;;31.52;16.07;;;;;;;3.52;100.00;102731.59;4971262;57;1140946;-66
2023/02/14 08:17:21;;;;;;;27.17;11.10;;;;;;;3.64;100.00;102734.52;5016114;56;1141269;-68
2023/02/14 08:22:27;;;;;;;22.13;10.83;;;;;;;3.72;100.00;102725.66;4980171;57;1141531;-69
2023/02/14 08:27:33;;;;;;;16.03;8.37;;;;;;;3.81;100.00;102729.47;4977869;57;1141229;-67
2023/02/14 08:32:39;;;;;;;21.07;9.17;;;;;;;3.87;100.00;102721.52;5036576;57;1138841;-68
2023/02/14 08:37:44;;;;;;;23.27;8.60;;;;;;;3.96;100.00;102722.28;4973353;57;1148357;-70
2023/02/14 08:42:52;;;;;;;14.05;7.37;;;;;;;4.07;100.00;102726.90;5013659;56;1138886;-69
2023/02/14 08:48:04;;;;;;;27.77;11.30;;;;;;;4.19;100.00;102728.02;4975705;56;1141021;-66
2023/02/14 08:53:12;;;;;;;17.33;7.60;;;;;;;4.37;100.00;102729.03;4946018;56;1141093;-68
2023/02/14 08:58:18;;;;;;;15.70;6.23;;;;;;;4.58;100.00;102725.19;4957911;56;1139169;-70
2023/02/14 09:03:24;;;;;;;16.37;7.93;;;;;;;4.69;100.00;102713.20;5015326;56;1139107;-66
2023/02/14 09:08:30;;;;;;;12.77;6.47;;;;;;;4.88;100.00;102742.13;4961149;56;1141050;-70
2023/02/14 09:13:36;;;;;;;21.70;7.07;;;;;;;4.97;100.00;102738.45;4969855;56;1139348;-68
2023/02/14 09:18:42;;;;;;;18.63;7.07;;;;;;;5.00;100.00;102741.89;4979323;56;1138903;-70
2023/02/14 09:23:49;;;;;;;11.33;5.83;;;;;;;5.06;100.00;102736.51;4967247;56;1139044;-71
2023/02/14 09:28:57;;;;;;;12.07;4.83;;;;;;;5.16;100.00;102736.77;4972852;56;1138926;-69
2023/02/14 09:34:05;;;;;;;15.68;5.67;;;;;;;5.26;100.00;102738.75;4983948;56;1138885;-70
2023/02/14 09:39:11;;;;;;;20.47;6.77;;;;;;;5.32;100.00;102743.88;4954450;56;1138711;-68
2023/02/14 09:44:33;;;;;;;7.20;4.40;;;;;;;5.41;100.00;102739.75;4964219;56;1139078;-66
2023/02/14 09:49:40;;;;;;;14.47;5.40;;;;;;;5.52;100.00;102737.75;4959452;56;1136836;-67
2023/02/14 09:54:51;;;;;;;12.93;5.13;;;;;;;5.58;100.00;102743.33;4975755;56;1141071;-69
2023/02/14 10:00:31;;;;;;;11.63;6.10;;;;;;;5.57;100.00;102738.53;4977509;56;1139261;-70
2023/02/14 10:05:56;;;;;;;12.97;6.40;;;;;;;5.58;100.00;102735.45;4960876;56;1139282;-70
2023/02/14 10:11:09;;;;;;;7.53;4.47;;;;;;;5.70;100.00;102735.19;4948072;56;1138994;-69
2023/02/14 10:16:37;;;;;;;9.20;3.65;;;;;;;5.80;100.00;102726.68;4986425;56;1136886;-70
2023/02/14 10:21:53;;;;;;;7.53;3.40;;;;;;;5.85;100.00;102740.09;4868112;58;1138796;-70
2023/02/14 10:27:19;;;;;;;9.15;3.45;;;;;;;5.86;100.00;102719.95;4958626;56;1136771;-68
2023/02/14 10:32:41;;;;;;;15.03;4.80;;;;;;;5.78;100.00;102723.22;4995345;56;1137165;-69
2023/02/14 10:38:39;;;;;;;8.80;3.93;;;;;;;5.88;100.00;102717.75;4865568;57;1138914;-70
2023/02/14 10:44:19;;;;;;;7.97;3.60;;;;;;;5.97;100.00;102709.64;4935280;57;1137255;-71
2023/02/14 10:49:38;;;;;;;14.13;6.07;;;;;;;6.08;100.00;102710.72;5004129;56;1138858;-70
2023/02/14 10:54:59;;;;;;;10.73;3.70;;;;;;;6.11;100.00;102726.38;4973588;56;1138957;-68
2023/02/14 11:00:22;;;;;;;11.77;3.63;;;;;;;6.06;100.00;102706.40;5001308;56;1141021;-71
2023/02/14 11:05:41;;;;;;;6.97;3.87;;;;;;;6.16;100.00;102719.72;4988142;56;1138863;-70
2023/02/14 11:10:47;;;;;;;10.77;4.47;;;;;;;6.26;100.00;102695.80;4966638;56;1136885;-71
2023/02/14 11:15:53;;;;;;;6.00;3.77;;;;;;;6.49;100.00;102711.00;5019080;56;1141116;-68
2023/02/14 11:21:29;;;;;;;5.50;2.63;;;;;;;6.70;100.00;102705.64;5013667;56;1136862;-66
2023/02/14 11:26:32;;;;;;;5.97;3.20;;;;;;;6.90;100.00;102709.03;4990569;56;1139000;-68
2023/02/14 11:31:40;;;;;;;8.63;3.57;;;;;;;6.96;100.00;102708.42;4950755;56;1136810;-70
2023/02/14 11:36:47;;;;;;;6.67;3.10;;;;;;;6.90;100.00;102698.52;5001305;56;1136732;-69
2023/02/14 11:41:57;;;;;;;4.58;3.15;;;;;;;6.94;100.00;102708.05;5036154;56;1138899;-69
2023/02/14 11:47:28;;;;;;;10.80;2.90;;;;;;;6.90;100.00;102703.32;5030080;56;1137118;-70
2023/02/14 11:52:39;;;;;;;7.05;3.50;;;;;;;6.94;100.00;102688.33;4974611;57;1138990;-71
2023/02/14 11:57:45;;;;;;;12.25;3.45;;;;;;;7.09;100.00;102687.89;4987466;57;1138970;-70
2023/02/14 12:02:51;;;;;;;6.45;2.52;;;;;;;7.17;100.00;102679.34;5007685;56;1139021;-70
2023/02/14 12:08:02;;;;;;;8.70;3.47;;;;;;;7.24;100.00;102678.69;4983397;57;1139140;-68
2023/02/14 12:13:15;;;;;;;11.07;3.83;;;;;;;7.25;100.00;102673.84;4997304;57;1136777;-71
2023/02/14 12:18:44;;;;;;;;;;;;;;;7.44;100.00;102657.05;4970218;57;1138798;-68
2023/02/14 12:24:06;;;;;;;5.93;3.20;;;;;;;7.75;100.00;102653.87;4995509;57;976207;-69
2023/02/14 12:29:43;;;;;;;4.37;2.83;;;;;;;7.95;100.00;102655.39;4939269;57;1136747;-70
2023/02/14 12:34:51;;;;;;;11.00;3.83;;;;;;;7.96;100.00;102656.25;4978381;56;1136682;-67
2023/02/14 12:40:09;;;;;;;6.67;3.45;;;;;;;7.97;100.00;102637.77;4973336;57;1141226;-71
2023/02/14 12:45:42;;;;;;;14.40;5.33;;;;;;;8.08;100.00;102637.42;4962500;57;1138983;-66
2023/02/14 12:50:55;;;;;;;5.50;3.03;;;;;;;8.01;100.00;102641.16;5025940;56;1138942;-69
2023/02/14 12:56:35;;;;;;;6.97;4.40;;;;;;;8.29;100.00;102645.91;4937792;56;1138973;-69
2023/02/14 13:02:26;;;;;;;11.40;5.00;;;;;;;8.51;100.00;102639.94;5000984;56;1138898;-72
2023/02/14 13:07:49;;;;;;;8.30;5.00;;;;;;;8.53;100.00;102645.57;5001471;56;1141113;-69
2023/02/14 13:13:20;;;;;;;9.10;4.47;;;;;;;8.39;100.00;102635.96;5013614;56;1136739;-67
2023/02/14 13:18:39;;;;;;;6.50;3.13;;;;;;;8.55;100.00;102637.61;4867596;58;1136819;-71
2023/02/14 13:23:52;;;;;;;6.30;2.57;;;;;;;8.72;100.00;102635.20;4972919;56;1136843;-71
2023/02/14 13:29:04;;;;;;;4.92;3.30;;;;;;;8.92;100.00;102620.83;5004220;57;1136961;-69
2023/02/14 13:34:20;;;;;;;6.87;3.13;;;;;;;8.94;100.00;102622.95;4904444;58;1137016;-70
2023/02/14 13:39:36;;;;;;;7.43;2.83;;;;;;;9.07;100.00;102616.75;4983524;57;1138886;-71
2023/02/14 13:44:51;;;;;;;5.03;3.00;;;;;;;9.17;100.00;102612.83;4975126;56;1138858;-69
2023/02/14 13:50:02;;;;;;;8.15;4.25;;;;;;;9.46;100.00;102613.05;5002365;57;1138909;-71
2023/02/14 13:55:16;;;;;;;4.53;2.97;;;;;;;9.51;100.00;102608.42;4985837;56;1138892;-70
2023/02/14 14:00:26;;;;;;;6.35;3.12;;;;;;;9.71;100.00;102610.27;4988094;56;1138823;-71
2023/02/14 14:05:41;;;;;;;8.53;3.43;;;;;;;9.98;100.00;102611.77;4930034;57;1138992;-68
2023/02/14 14:10:59;;;;;;;5.73;3.27;;;;;;;9.98;100.00;102616.20;4973944;57;1139053;-70
2023/02/14 14:16:22;;;;;;;4.93;3.00;;;;;;;9.77;100.00;102610.03;4892556;58;1138965;-70
2023/02/14 14:21:37;;;;;;;5.17;2.30;;;;;;;10.21;100.00;102606.42;4907310;57;1139014;-71
2023/02/14 14:26:51;;;;;;;5.10;2.52;;;;;;;10.97;100.00;102607.91;4988173;57;1140972;-70
2023/02/14 14:31:57;;;;;;;4.87;3.05;;;;;;;11.52;100.00;102591.59;5007623;57;1140877;-68
2023/02/14 14:37:22;;;;;;;19.42;4.92;;;;;;;11.36;100.00;102593.26;4987919;55;1141138;-67
2023/02/14 14:42:40;;;;;;;6.40;3.63;;;;;;;10.65;100.00;102596.14;4987343;56;1143063;-69
2023/02/14 14:47:48;;;;;;;13.87;4.57;;;;;;;10.01;100.00;102601.08;4970458;57;1140957;-68
2023/02/14 14:53:08;;;;;;;14.93;3.77;;;;;;;9.63;100.00;102603.96;4923222;57;1143306;-68
2023/02/14 14:58:37;;;;;;;5.17;2.73;;;;;;;9.81;100.00;102592.64;4932326;57;1141272;-69
2023/02/14 15:03:44;;;;;;;6.80;2.55;;;;;;;10.38;100.00;102594.26;4907496;57;1139111;-68
2023/02/14 15:08:51;;;;;;;6.90;2.77;;;;;;;9.71;100.00;102582.53;4961499;57;1141139;-68
2023/02/14 15:13:57;;;;;;;10.58;3.98;;;;;;;9.18;100.00;102578.45;5007833;57;1137007;-68
2023/02/14 15:19:18;;;;;;;7.05;3.30;;;;;;;8.82;100.00;102577.23;4987767;57;1138804;-71
2023/02/14 15:24:25;;;;;;;8.37;2.87;;;;;;;8.51;100.00;102568.28;4987435;57;1136883;-71
2023/02/14 15:29:37;;;;;;;7.10;3.60;;;;;;;8.24;100.00;102574.05;5005038;57;1136882;-69
2023/02/14 15:34:47;;;;;;;12.30;4.77;;;;;;;8.09;100.00;102564.91;4957970;57;1138833;-69
2023/02/14 15:40:02;;;;;;;12.63;4.93;;;;;;;7.99;100.00;102563.94;4931510;57;1141168;-71
2023/02/14 15:45:21;;;;;;;12.87;5.57;;;;;;;7.89;100.00;102562.08;4966274;57;1141027;-71
2023/02/14 15:50:36;;;;;;;13.08;4.97;;;;;;;7.87;100.00;102558.63;4910769;58;1141272;-71
2023/02/14 15:56:30;;;;;;;;;;;;;;;;;;;;;
2023/02/14 16:02:41;;;;;;;;;;;;;;;;;;;;;
2023/02/14 16:08:31;;;;;;;6.57;3.40;;;;;;;7.32;100.00;102561.77;4463006;63;1139104;-72
2023/02/14 16:13:56;;;;;;;13.17;4.83;;;;;;;7.05;100.00;102564.77;4555229;62;1136909;-69
2023/02/14 16:19:46;;;;;;;17.23;9.57;;;;;;;6.83;100.00;102570.27;4557870;62;1138832;-68
2023/02/14 16:25:30;;;;;;;;;;;;;;;;;;;;;
2023/02/14 16:30:31;;;;;;;9.93;4.80;;;;;;;6.51;100.00;102576.45;4564040;62;1139030;-68
2023/02/14 16:35:50;;;;;;;11.97;5.75;;;;;;;6.40;100.00;102582.91;4561297;59;1136805;-66
2023/02/14 16:40:55;;;;;;;17.00;4.97;;;;;;;6.29;100.00;102590.61;4927013;58;1139051;-70
2023/02/14 16:46:01;;;;;;;14.80;4.93;;;;;;;6.22;100.00;102592.15;4969515;57;1138812;-69
2023/02/14 16:51:09;;;;;;;11.87;6.00;;;;;;;6.17;100.00;102592.70;4956299;56;1139054;-67
2023/02/14 16:56:22;;;;;;;13.33;6.20;;;;;;;6.07;100.00;102599.98;4863330;58;1138870;-69
2023/02/14 17:01:30;;;;;;;43.10;17.83;;;;;;;6.03;100.00;102604.02;4830549;59;1139416;-67
2023/02/14 17:06:42;;;;;;;14.87;8.17;;;;;;;6.04;100.00;102608.38;4967074;57;1143142;-69
2023/02/14 17:11:51;;;;;;;298.20;105.07;;;;;;;6.04;100.00;102600.05;4960646;57;1140993;-67
2023/02/14 17:16:59;;;;;;;211.57;72.63;;;;;;;6.14;100.00;102607.23;4939427;57;1147166;-70
2023/02/14 17:22:06;;;;;;;76.70;31.50;;;;;;;6.20;100.00;102604.01;4953439;57;1143276;-69
2023/02/14 17:27:13;;;;;;;85.97;35.43;;;;;;;6.12;100.00;102609.03;4967414;57;1140847;-71
2023/02/14 17:32:19;;;;;;;121.30;48.03;;;;;;;6.03;100.00;102607.97;4945180;57;1140932;-71
2023/02/14 17:37:24;;;;;;;140.07;59.93;;;;;;;5.94;100.00;102607.76;4896523;57;1143039;-67
2023/02/14 17:42:33;;;;;;;135.57;59.73;;;;;;;5.81;100.00;102605.83;4923622;57;1143209;-69
2023/02/14 17:47:42;;;;;;;132.52;57.03;;;;;;;5.66;100.00;102611.00;4972696;57;1143163;-68
2023/02/14 17:52:47;;;;;;;132.23;50.67;;;;;;;5.54;100.00;102609.12;4967649;57;1142973;-67
2023/02/14 17:57:55;;;;;;;118.40;49.07;;;;;;;5.43;100.00;102605.89;4976795;57;1142946;-72
2023/02/14 18:03:02;;;;;;;123.60;53.17;;;;;;;5.29;100.00;102604.89;4953630;57;1142919;-67
2023/02/14 18:08:08;;;;;;;127.17;53.77;;;;;;;5.20;100.00;102607.25;4935003;57;1142973;-69
2023/02/14 18:13:14;;;;;;;139.87;62.63;;;;;;;5.16;100.00;102600.37;4967893;57;1143118;-68
2023/02/14 18:18:20;;;;;;;158.57;72.23;;;;;;;5.15;100.00;102596.47;4991226;57;1145072;-67
2023/02/14 18:23:27;;;;;;;168.87;78.57;;;;;;;5.12;100.00;102609.64;4966451;57;1143177;-67
2023/02/14 18:28:35;;;;;;;197.53;77.57;;;;;;;5.11;100.00;102607.47;4965924;57;1143024;-70
2023/02/14 18:33:42;;;;;;;206.77;86.37;;;;;;;4.98;100.00;102604.69;4971298;57;1143080;-69
2023/02/14 18:38:49;;;;;;;188.73;74.90;;;;;;;4.90;100.00;102606.59;4989257;57;1143157;-66
2023/02/14 18:43:55;;;;;;;174.77;75.37;;;;;;;4.74;100.00;102606.04;4968071;57;1143081;-68
2023/02/14 18:49:02;;;;;;;182.77;78.47;;;;;;;4.62;100.00;102605.42;4927286;57;1142945;-66
2023/02/14 18:54:08;;;;;;;232.03;97.07;;;;;;;4.48;100.00;102605.25;4968530;57;1142941;-69
2023/02/14 18:59:15;;;;;;;199.67;91.60;;;;;;;4.36;100.00;102600.24;4936828;57;1142971;-69
2023/02/14 19:04:21;;;;;;;198.70;86.80;;;;;;;4.22;100.00;102603.56;4909057;56;1143151;-69
2023/02/14 19:09:28;;;;;;;168.93;81.37;;;;;;;4.17;100.00;102597.53;4942220;57;1143113;-67
2023/02/14 19:14:34;;;;;;;177.03;86.53;;;;;;;4.14;100.00;102598.45;4924529;57;1143037;-69
2023/02/14 19:19:40;;;;;;;186.03;88.73;;;;;;;4.16;100.00;102599.29;4910640;56;1143288;-69
2023/02/14 19:24:46;;;;;;;179.87;89.72;;;;;;;4.07;100.00;102592.92;4939739;57;1143115;-67
2023/02/14 19:29:52;;;;;;;238.33;107.10;;;;;;;3.96;100.00;102586.14;4933155;56;1143108;-68
2023/02/14 19:34:58;;;;;;;244.00;107.93;;;;;;;3.81;100.00;102577.66;4918665;57;1145075;-68
2023/02/14 19:40:05;;;;;;;273.73;115.93;;;;;;;3.69;100.00;102576.97;4946519;57;1145327;-68
2023/02/14 19:45:11;;;;;;;279.13;119.47;;;;;;;3.65;100.00;102581.86;4910252;56;1145092;-65
2023/02/14 19:50:17;;;;;;;309.17;135.93;;;;;;;3.65;100.00;102594.50;4908984;57;1145107;-67
2023/02/14 19:55:23;;;;;;;227.40;105.27;;;;;;;3.62;100.00;102584.08;4920033;57;1145100;-66
2023/02/14 20:00:29;;;;;;;185.57;78.20;;;;;;;3.58;100.00;102579.77;4896143;57;1145165;-67
2023/02/14 20:05:39;;;;;;;142.80;61.33;;;;;;;3.49;100.00;102583.41;4861110;57;1143508;-66
2023/02/14 20:10:46;;;;;;;241.12;94.20;;;;;;;3.39;100.00;102579.63;4943126;57;1143157;-70
2023/02/14 20:15:52;;;;;;;254.83;110.87;;;;;;;3.33;100.00;102586.27;4971334;57;1143251;-67
2023/02/14 20:21:00;;;;;;;144.27;65.43;;;;;;;3.18;100.00;102581.69;4953617;57;1144960;-66
2023/02/14 20:26:13;;;;;;;123.93;55.27;;;;;;;3.13;100.00;102579.56;4939046;57;1143020;-67
2023/02/14 20:31:22;;;;;;;183.00;89.75;;;;;;;3.04;100.00;102577.09;4992942;57;1142963;-68
2023/02/14 20:36:28;;;;;;;102.47;47.50;;;;;;;3.03;100.00;102573.19;4917364;57;1149139;-65
2023/02/14 20:41:35;;;;;;;50.15;25.88;;;;;;;2.95;100.00;102573.27;4908055;57;1143757;-69
2023/02/14 20:46:40;;;;;;;44.60;22.83;;;;;;;2.77;100.00;102578.73;4927836;57;1140963;-66
2023/02/14 20:51:48;;;;;;;57.45;29.42;;;;;;;2.61;100.00;102582.41;4878921;58;1141714;-69
2023/02/14 20:56:54;;;;;;;65.95;32.60;;;;;;;2.46;100.00;102575.61;4862453;58;1140869;-67
2023/02/14 21:02:00;;;;;;;74.97;32.50;;;;;;;2.34;100.00;102574.01;4864023;58;1140962;-69
2023/02/14 21:07:09;;;;;;;154.17;71.13;;;;;;;2.39;100.00;102570.05;4974686;57;1140854;-67
2023/02/14 21:12:13;;;;;;;252.37;113.67;;;;;;;2.51;100.00;102565.99;4914104;57;1143008;-67
2023/02/14 21:17:20;;;;;;;136.33;59.07;;;;;;;2.56;100.00;102568.12;4956644;57;1145142;-67
2023/02/14 21:22:25;;;;;;;125.20;57.57;;;;;;;2.64;100.00;102575.84;4995969;57;1143055;-69
2023/02/14 21:27:37;;;;;;;117.03;50.03;;;;;;;2.63;100.00;102563.66;4950719;57;1142999;-70
2023/02/14 21:32:43;;;;;;;106.03;39.40;;;;;;;2.61;100.00;102553.67;4983350;57;1142971;-69
2023/02/14 21:37:48;;;;;;;98.60;41.15;;;;;;;2.46;100.00;102552.97;5006203;57;1142896;-66
2023/02/14 21:42:54;;;;;;;104.83;46.10;;;;;;;2.33;100.00;102548.78;4987820;57;1140996;-71
2023/02/14 21:53:23;;;;;;;97.92;41.10;;;;;;;2.10;100.00;102550.34;5007293;57;1141068;-68
2023/02/14 21:58:29;;;;;;;98.73;42.03;;;;;;;2.12;100.00;102554.25;4971050;57;1140791;-69
2023/02/14 22:03:35;;;;;;;97.47;42.13;;;;;;;2.10;100.00;102552.09;4968024;57;1140825;-67
2023/02/14 22:08:41;;;;;;;84.07;36.03;;;;;;;2.08;100.00;102561.23;4973826;57;1140873;-71
2023/02/14 22:13:49;;;;;;;88.25;38.10;;;;;;;1.97;100.00;102543.52;4949773;57;1140923;-70
2023/02/14 22:18:55;;;;;;;83.83;37.27;;;;;;;1.90;100.00;102550.10;4955390;57;1140986;-69
2023/02/14 22:24:02;;;;;;;109.75;45.50;;;;;;;1.81;100.00;102547.59;4928354;57;1140886;-69
2023/02/14 22:29:11;;;;;;;91.42;41.18;;;;;;;1.81;100.00;102544.54;4916369;57;1142963;-70
2023/02/14 22:34:17;;;;;;;99.03;41.50;;;;;;;1.82;100.00;102542.80;4943633;57;1141049;-71
2023/02/14 22:39:23;;;;;;;100.47;43.33;;;;;;;1.79;100.00;102534.99;4973061;57;1141053;-70
2023/02/14 22:44:29;;;;;;;87.33;38.53;;;;;;;1.76;100.00;102533.27;4930056;57;1142972;-69
2023/02/14 22:49:34;;;;;;;66.07;30.50;;;;;;;1.67;100.00;102534.67;4908576;58;1140838;-68
2023/02/14 22:54:40;;;;;;;60.80;30.10;;;;;;;1.58;100.00;102521.25;4959066;58;1140810;-70
2023/02/14 22:59:46;;;;;;;64.03;28.73;;;;;;;1.56;100.00;102525.61;4964434;58;1140722;-69
2023/02/14 23:04:53;;;;;;;66.63;32.10;;;;;;;1.44;100.00;102519.63;4934097;58;1140782;-68
2023/02/14 23:09:58;;;;;;;52.67;27.40;;;;;;;1.34;100.00;102509.73;4988163;57;1140883;-69
2023/02/14 23:25:51;;;;;;;67.17;33.67;;;;;;;1.13;100.00;102499.01;4943379;57;1140959;-69
2023/02/14 23:31:02;;;;;;;62.63;32.10;;;;;;;1.17;100.00;102504.64;4987819;56;1140875;-69
2023/02/14 23:36:07;;;;;;;58.00;29.97;;;;;;;1.19;100.00;102497.67;4937664;56;1140800;-70
2023/02/14 23:46:37;;;;;;;55.23;28.55;;;;;;;1.19;100.00;102492.91;4935349;57;1140934;-69
2023/02/14 23:51:45;;;;;;;66.73;32.83;;;;;;;1.13;100.00;102498.14;4875704;57;1141163;-71
2023/02/14 23:56:52;;;;;;;72.35;33.02;;;;;;;0.98;100.00;102497.81;4856276;58;1141081;-70
